Terminal Aerodrome Forecast
Issued by NWS Sioux Falls, SD

Home | Current Version | Previous Version | Text Only | Print | Product List | Glossary Off
Versions: 1 2 3 4 5 6 7 8 9 10 11 12 13 14

000
FTUS43 KFSD 181131
TAFFSD
TAF
KFSD 181131Z 1812/1912 33011KT P6SM BKN120
     FM181400 32011KT P6SM SCT035
     FM181800 33016G25KT P6SM SCT035
     FM182300 32008KT P6SM SKC
     FM191000 26004KT P6SM FEW250=

USA.gov is the U.S. government's official web portal to all federal, state and local government web resources and services.